Time;durP1;ratioP1;P1;durP2;ratioP2;P2;SDS_P1;SDS_P2;PMS_P1;PMS_P2;Temp;Humidity;BMP_temperature;BMP_pressure;BME280_temperature;BME280_humidity;BME280_pressure;Samples;Min_cycle;Max_cycle;Signal;HPM_P1;HPM_P2
2023/12/01 05:30:05;;;;;;;0.10;0.10;;;6.10;83.10;;;;;;6135458;23;20036;31
2023/12/01 05:32:31;;;;;;;0.13;0.13;;;6.00;83.20;;;;;;4924196;29;20071;-74
2023/12/01 05:34:56;;;;;;;0.10;0.10;;;6.10;83.00;;;;;;4939973;29;20035;-74
2023/12/01 05:37:23;;;;;;;0.10;0.10;;;6.00;82.80;;;;;;4939085;29;20052;-74
2023/12/01 05:39:49;;;;;;;0.10;0.10;;;6.00;83.30;;;;;;4943268;29;20036;-74
2023/12/01 05:42:14;;;;;;;0.10;0.10;;;6.00;83.00;;;;;;4942795;29;20099;-74
2023/12/01 05:44:41;;;;;;;0.10;0.10;;;5.90;83.10;;;;;;4942627;29;20032;-74
2023/12/01 05:47:07;;;;;;;0.10;0.10;;;5.80;83.60;;;;;;4957301;29;20023;-74
2023/12/01 05:49:32;;;;;;;0.10;0.10;;;5.80;83.50;;;;;;4942288;29;20396;-74
2023/12/01 05:51:58;;;;;;;0.10;0.10;;;5.80;83.30;;;;;;4942228;29;20039;-75
2023/12/01 05:54:24;;;;;;;0.10;0.10;;;5.80;84.00;;;;;;4943011;29;20023;-74
2023/12/01 05:56:50;;;;;;;0.10;0.10;;;5.90;83.60;;;;;;4942650;29;20051;-74
2023/12/01 05:59:15;;;;;;;0.10;0.10;;;5.90;83.60;;;;;;4942172;29;20444;-73
2023/12/01 06:01:41;;;;;;;0.10;0.10;;;5.90;83.50;;;;;;4924422;29;20020;-73
2023/12/01 06:04:06;;;;;;;0.10;0.10;;;5.90;83.50;;;;;;4941152;29;20440;-74
2023/12/01 06:06:32;;;;;;;0.10;0.10;;;5.80;83.80;;;;;;4941151;29;20099;-74
2023/12/01 06:08:57;;;;;;;0.10;0.10;;;5.90;83.80;;;;;;4942084;29;20032;-73
2023/12/01 06:11:23;;;;;;;0.10;0.10;;;5.90;83.70;;;;;;4942687;29;20039;-74
2023/12/01 06:13:48;;;;;;;0.10;0.10;;;5.90;83.60;;;;;;4941887;29;20042;-76
2023/12/01 06:16:14;;;;;;;0.10;0.10;;;5.90;83.50;;;;;;4941784;29;20103;-75
2023/12/01 06:18:39;;;;;;;0.10;0.10;;;6.00;83.30;;;;;;4956420;29;20047;-75
2023/12/01 06:21:05;;;;;;;0.10;0.10;;;5.90;83.10;;;;;;4956476;29;20524;-77
2023/12/01 06:23:32;;;;;;;0.10;0.10;;;5.90;83.20;;;;;;4940979;29;20032;-76
2023/12/01 06:25:58;;;;;;;0.10;0.10;;;5.90;83.40;;;;;;4940868;29;20031;-76
2023/12/01 06:28:26;;;;;;;0.10;0.10;;;5.90;83.40;;;;;;4941520;29;20035;-77
2023/12/01 06:30:52;;;;;;;0.10;0.10;;;5.90;83.30;;;;;;4953057;28;20123;-76
2023/12/01 06:33:18;;;;;;;0.10;0.10;;;6.00;82.90;;;;;;4926005;29;20063;-75
2023/12/01 06:35:44;;;;;;;0.10;0.10;;;5.90;82.80;;;;;;4920902;29;20040;-77
2023/12/01 06:38:11;;;;;;;0.10;0.10;;;5.90;83.40;;;;;;4922179;29;20031;-76
2023/12/01 06:40:36;;;;;;;0.10;0.10;;;6.00;83.20;;;;;;4922497;29;20027;-76
2023/12/01 06:43:09;;;;;;;0.10;0.10;;;6.00;83.00;;;;;;4921690;29;20472;-76
2023/12/01 06:45:36;;;;;;;0.10;0.10;;;6.00;82.80;;;;;;4935695;29;20043;-76
2023/12/01 06:48:01;;;;;;;0.10;0.10;;;5.80;83.30;;;;;;4923072;29;20083;-76
2023/12/01 06:50:27;;;;;;;0.10;0.10;;;5.70;83.20;;;;;;4921304;29;20040;-74
2023/12/01 06:52:53;;;;;;;0.10;0.10;;;5.80;83.20;;;;;;4936712;29;20107;-76
2023/12/01 06:55:19;;;;;;;0.10;0.10;;;5.80;83.10;;;;;;4922529;29;20028;-76
2023/12/01 06:57:47;;;;;;;0.10;0.10;;;5.70;83.10;;;;;;4921939;29;20028;-75
2023/12/01 07:00:29;;;;;;;0.10;0.10;;;5.70;83.20;;;;;;4922247;29;20119;-76
2023/12/01 07:02:59;;;;;;;0.10;0.10;;;5.60;82.90;;;;;;4900011;29;20048;-75
2023/12/01 07:05:26;;;;;;;0.10;0.10;;;5.70;83.00;;;;;;4921587;29;20117;-75
2023/12/01 07:07:56;;;;;;;0.10;0.10;;;5.70;83.20;;;;;;4936524;29;20032;-74
2023/12/01 07:10:22;;;;;;;0.10;0.10;;;5.60;83.00;;;;;;4929656;29;20027;-74
2023/12/01 07:12:49;;;;;;;0.17;0.10;;;5.60;82.70;;;;;;4921696;29;20043;-74
2023/12/01 07:15:20;;;;;;;0.10;0.10;;;5.60;83.30;;;;;;4921318;29;20127;-74
2023/12/01 07:17:50;;;;;;;0.10;0.10;;;5.60;83.50;;;;;;4921764;29;20487;-74
2023/12/01 07:20:17;;;;;;;0.10;0.10;;;5.60;83.20;;;;;;4922162;29;20028;-74
2023/12/01 07:22:44;;;;;;;0.10;0.10;;;5.60;83.30;;;;;;4921804;29;20428;-75
2023/12/01 07:25:11;;;;;;;0.10;0.10;;;5.50;83.40;;;;;;4948389;28;20024;-75
2023/12/01 07:27:39;;;;;;;0.10;0.10;;;5.50;83.10;;;;;;4919037;29;20067;-75
2023/12/01 07:30:06;;;;;;;0.10;0.10;;;5.60;83.60;;;;;;4920285;29;20558;-75
2023/12/01 07:32:33;;;;;;;0.10;0.10;;;5.60;83.30;;;;;;4935094;29;20063;-75
2023/12/01 07:34:58;;;;;;;0.10;0.10;;;5.70;83.30;;;;;;4924982;29;20024;-74
2023/12/01 07:37:24;;;;;;;0.10;0.10;;;5.70;83.10;;;;;;4917908;29;20607;-75
2023/12/01 07:39:50;;;;;;;0.10;0.10;;;5.70;82.70;;;;;;4913973;29;20031;-74
2023/12/01 07:42:16;;;;;;;0.10;0.10;;;5.60;82.90;;;;;;4921811;29;20016;-74
2023/12/01 07:44:42;;;;;;;0.10;0.10;;;5.60;83.20;;;;;;4926201;29;20032;-74
2023/12/01 07:47:11;;;;;;;0.10;0.10;;;5.70;83.20;;;;;;4910584;29;20035;-74
2023/12/01 07:49:37;;;;;;;0.10;0.10;;;5.70;82.90;;;;;;4921470;29;20031;-74
2023/12/01 07:52:06;;;;;;;0.10;0.10;;;5.70;83.00;;;;;;4921086;29;20055;-74
2023/12/01 07:54:35;;;;;;;0.15;0.15;;;5.80;82.40;;;;;;4921566;29;20457;-74
2023/12/01 07:57:01;;;;;;;0.10;0.10;;;5.70;82.70;;;;;;4919908;29;20032;-74
2023/12/01 07:59:27;;;;;;;0.10;0.10;;;5.80;82.60;;;;;;4921360;29;20067;-74
2023/12/01 08:01:53;;;;;;;0.10;0.10;;;5.70;82.30;;;;;;4934780;29;20032;-74
2023/12/01 08:04:19;;;;;;;0.20;0.20;;;5.80;82.30;;;;;;4935589;29;20532;-74
2023/12/01 08:06:44;;;;;;;0.10;0.10;;;5.80;82.50;;;;;;4921377;29;20028;-74
2023/12/01 08:09:16;;;;;;;0.10;0.10;;;5.80;82.10;;;;;;4923102;29;20092;-74
2023/12/01 08:11:42;;;;;;;0.10;0.10;;;5.90;82.10;;;;;;4939017;29;20028;-75
2023/12/01 08:14:08;;;;;;;0.10;0.10;;;5.80;82.10;;;;;;4939329;29;20028;-74
2023/12/01 08:16:34;;;;;;;0.10;0.10;;;5.80;82.10;;;;;;4931389;29;20115;-74
2023/12/01 08:18:59;;;;;;;0.10;0.10;;;5.80;82.20;;;;;;4921198;29;20036;-74
2023/12/01 08:21:25;;;;;;;0.10;0.10;;;5.80;81.90;;;;;;4935733;29;20038;-76
2023/12/01 08:23:50;;;;;;;0.10;0.10;;;5.90;82.00;;;;;;4919224;29;20080;-78
2023/12/01 08:26:16;;;;;;;0.10;0.10;;;6.00;81.80;;;;;;4911056;29;20036;-77
2023/12/01 08:28:42;;;;;;;0.10;0.10;;;6.00;81.80;;;;;;4910976;29;20067;-78
2023/12/01 08:31:07;;;;;;;0.10;0.10;;;6.00;81.70;;;;;;4918527;29;20114;-77
2023/12/01 08:33:35;;;;;;;0.10;0.10;;;6.00;81.60;;;;;;4936704;29;20487;-77
2023/12/01 08:36:01;;;;;;;0.10;0.10;;;6.00;81.30;;;;;;4939067;29;20019;-77
2023/12/01 08:38:27;;;;;;;0.10;0.10;;;6.10;81.60;;;;;;4938718;29;20038;-76
2023/12/01 08:40:52;;;;;;;0.10;0.10;;;6.20;81.60;;;;;;4939733;29;20019;-76
2023/12/01 08:43:18;;;;;;;0.10;0.10;;;6.00;81.20;;;;;;4939120;29;20086;-76
2023/12/01 08:45:43;;;;;;;0.10;0.10;;;6.00;81.10;;;;;;4937848;29;20051;-77
2023/12/01 08:48:09;;;;;;;0.10;0.10;;;6.00;81.70;;;;;;4921822;29;20032;-76
2023/12/01 08:50:35;;;;;;;0.10;0.10;;;6.00;81.60;;;;;;4937865;29;20146;-75
2023/12/01 08:53:00;;;;;;;0.10;0.10;;;6.10;81.60;;;;;;4928673;29;20027;-75
2023/12/01 08:55:26;;;;;;;0.10;0.10;;;5.90;81.50;;;;;;4934395;29;20155;-75
2023/12/01 08:57:51;;;;;;;0.10;0.10;;;6.00;81.60;;;;;;4939031;29;20035;-75
2023/12/01 09:00:20;;;;;;;0.10;0.10;;;6.10;81.30;;;;;;4938579;29;20024;-75
2023/12/01 09:02:48;;;;;;;0.10;0.10;;;6.00;81.10;;;;;;4939182;29;20035;-75
2023/12/01 09:05:14;;;;;;;0.10;0.10;;;6.10;81.10;;;;;;4940241;29;20019;-75
2023/12/01 09:07:39;;;;;;;0.10;0.10;;;6.20;81.10;;;;;;4937013;29;20639;-75
2023/12/01 09:10:05;;;;;;;0.10;0.10;;;6.30;80.70;;;;;;4938809;29;20034;-75
2023/12/01 09:12:31;;;;;;;0.10;0.10;;;6.30;80.70;;;;;;4927836;29;20499;-74
2023/12/01 09:14:57;;;;;;;0.10;0.10;;;6.40;80.10;;;;;;4938608;29;20027;-75
2023/12/01 09:17:23;;;;;;;0.10;0.10;;;6.20;80.50;;;;;;4939470;29;20472;-75
2023/12/01 09:19:48;;;;;;;0.10;0.10;;;6.20;80.60;;;;;;4939465;29;20047;-75
2023/12/01 09:22:14;;;;;;;0.10;0.10;;;6.30;80.20;;;;;;4937903;29;20110;-74
2023/12/01 09:24:39;;;;;;;0.10;0.10;;;6.30;80.40;;;;;;4938076;29;20015;-75
2023/12/01 09:27:05;;;;;;;0.10;0.10;;;6.30;80.10;;;;;;4938888;29;20096;-75
2023/12/01 09:29:30;;;;;;;0.10;0.10;;;6.30;80.00;;;;;;4921614;29;20028;-74
2023/12/01 09:31:56;;;;;;;0.10;0.10;;;6.30;79.80;;;;;;4939017;29;20122;-75
2023/12/01 09:34:22;;;;;;;0.10;0.10;;;6.30;79.60;;;;;;4938865;29;20023;-74
2023/12/01 09:36:47;;;;;;;0.10;0.10;;;6.30;79.70;;;;;;4953305;29;20090;-75
2023/12/01 09:39:13;;;;;;;0.10;0.10;;;6.30;79.70;;;;;;4938327;29;20023;-75
2023/12/01 09:41:39;;;;;;;0.10;0.10;;;6.30;79.80;;;;;;4938553;29;20028;-75
2023/12/01 09:44:06;;;;;;;0.10;0.10;;;6.30;80.10;;;;;;4941052;29;20040;-75
2023/12/01 09:46:34;;;;;;;0.10;0.10;;;6.30;79.80;;;;;;4938411;29;20036;-74
2023/12/01 09:49:04;;;;;;;0.13;0.13;;;6.30;79.10;;;;;;4939394;29;20488;-75
2023/12/01 09:51:36;;;;;;;0.10;0.10;;;6.30;79.50;;;;;;4938043;29;20031;-75
2023/12/01 09:54:05;;;;;;;0.10;0.10;;;6.40;79.80;;;;;;4921674;29;20020;-76
2023/12/01 09:56:31;;;;;;;0.10;0.10;;;6.50;79.70;;;;;;4938858;29;20054;-75
2023/12/01 09:58:58;;;;;;;0.10;0.10;;;6.50;79.00;;;;;;4937736;29;20039;-76
2023/12/01 10:01:24;;;;;;;0.17;0.17;;;6.60;79.20;;;;;;4936737;29;20063;-76
2023/12/01 10:03:50;;;;;;;0.10;0.10;;;6.70;78.80;;;;;;4937544;29;20054;-75
2023/12/01 10:06:17;;;;;;;0.15;0.15;;;6.70;78.80;;;;;;4936434;29;20028;-75
2023/12/01 10:08:43;;;;;;;0.10;0.10;;;6.70;78.60;;;;;;4938450;29;20023;-76
2023/12/01 10:11:20;;;;;;;0.10;0.10;;;6.70;78.20;;;;;;4970647;28;20066;-75
2023/12/01 10:13:48;;;;;;;0.10;0.10;;;6.90;78.30;;;;;;4947038;29;20028;-75
2023/12/01 10:16:14;;;;;;;0.10;0.10;;;6.90;78.40;;;;;;4937972;29;20395;-76
2023/12/01 10:19:01;;;;;;;0.10;0.10;;;7.00;77.80;;;;;;4951763;28;20106;-76
2023/12/01 10:21:53;;;;;;;0.10;0.10;;;7.00;78.30;;;;;;4919872;29;20036;-77
2023/12/01 10:24:21;;;;;;;0.10;0.10;;;7.10;77.40;;;;;;4938401;29;20499;-79
2023/12/01 10:26:47;;;;;;;0.10;0.10;;;7.10;77.90;;;;;;4939702;29;20028;-78
2023/12/01 10:29:30;;;;;;;0.10;0.10;;;7.20;77.90;;;;;;4940640;29;20512;-79
2023/12/01 10:32:03;;;;;;;0.10;0.10;;;7.10;77.40;;;;;;4940315;29;20040;-79
2023/12/01 10:34:29;;;;;;;0.22;0.10;;;7.20;77.40;;;;;;4934368;29;20107;-79
2023/12/01 10:36:55;;;;;;;0.10;0.10;;;7.20;77.50;;;;;;4940279;29;20038;-79
2023/12/01 10:39:27;;;;;;;0.10;0.10;;;7.30;77.10;;;;;;4934703;29;20016;-78
2023/12/01 10:41:55;;;;;;;0.10;0.10;;;7.30;76.80;;;;;;4939297;29;20031;-78
2023/12/01 10:44:26;;;;;;;0.10;0.10;;;7.40;76.80;;;;;;4939120;29;20060;-78
2023/12/01 10:46:53;;;;;;;0.10;0.10;;;7.30;76.10;;;;;;4939316;29;20055;-78
2023/12/01 10:49:20;;;;;;;0.10;0.10;;;7.30;76.60;;;;;;4937460;29;20034;-78
2023/12/01 10:51:46;;;;;;;0.10;0.10;;;7.30;76.10;;;;;;4939977;29;20095;-78
2023/12/01 10:54:14;;;;;;;0.10;0.10;;;7.30;76.20;;;;;;4940278;29;20027;-78
2023/12/01 10:57:08;;;;;;;0.10;0.10;;;7.40;75.90;;;;;;4937405;29;20035;-78
2023/12/01 10:59:38;;;;;;;0.10;0.10;;;7.40;75.80;;;;;;4938054;29;20567;-78
2023/12/01 11:02:05;;;;;;;0.10;0.10;;;7.40;75.50;;;;;;4940342;29;20039;-78
2023/12/01 11:04:33;;;;;;;0.10;0.10;;;7.50;75.90;;;;;;4934211;29;20027;-77
2023/12/01 11:06:58;;;;;;;0.10;0.10;;;7.60;75.70;;;;;;4935216;29;20028;-78
2023/12/01 11:09:42;;;;;;;0.10;0.10;;;7.50;75.40;;;;;;4934663;29;20159;-78
2023/12/01 11:12:26;;;;;;;0.10;0.10;;;7.60;75.00;;;;;;4938930;29;20035;-78
2023/12/01 11:14:54;;;;;;;0.10;0.10;;;7.60;74.50;;;;;;4934294;29;20031;-78
2023/12/01 11:17:20;;;;;;;0.10;0.10;;;7.50;74.60;;;;;;4930051;29;20028;-78
2023/12/01 11:19:45;;;;;;;0.17;0.17;;;7.60;75.00;;;;;;4932739;29;20563;-78
2023/12/01 11:22:29;;;;;;;0.10;0.10;;;7.50;74.70;;;;;;4939568;29;20123;-78
2023/12/01 11:24:56;;;;;;;0.10;0.10;;;7.70;74.60;;;;;;4931764;29;20075;-78
2023/12/01 11:27:23;;;;;;;0.10;0.10;;;7.70;75.10;;;;;;4936713;29;20032;-78
2023/12/01 11:30:12;;;;;;;0.10;0.10;;;7.70;74.20;;;;;;4930316;29;20039;-78
2023/12/01 11:32:41;;;;;;;0.10;0.10;;;7.80;74.50;;;;;;4937950;29;20570;-79
2023/12/01 11:35:09;;;;;;;0.10;0.10;;;7.80;74.10;;;;;;4939117;29;20028;-78
2023/12/01 11:37:58;;;;;;;0.10;0.10;;;7.90;74.00;;;;;;4938951;29;20495;-79
2023/12/01 11:40:26;;;;;;;0.10;0.10;;;7.90;73.50;;;;;;4939342;29;20035;-79
2023/12/01 11:42:51;;;;;;;0.10;0.10;;;7.90;73.00;;;;;;4939195;29;20020;-80
2023/12/01 11:45:36;;;;;;;0.10;0.10;;;8.00;73.40;;;;;;4938708;29;20091;-79
2023/12/01 11:48:05;;;;;;;0.10;0.10;;;8.10;73.00;;;;;;4939757;29;20110;-79
2023/12/01 11:50:31;;;;;;;0.10;0.10;;;8.10;73.40;;;;;;4941320;29;20035;-79
2023/12/01 11:52:57;;;;;;;0.10;0.10;;;8.20;72.90;;;;;;4938469;29;20043;-79
2023/12/01 11:55:23;;;;;;;0.10;0.10;;;8.30;72.90;;;;;;4953364;29;20035;-79
2023/12/01 11:57:53;;;;;;;0.10;0.10;;;8.30;72.70;;;;;;4958559;29;20050;-79
2023/12/01 12:00:19;;;;;;;0.10;0.10;;;8.30;72.50;;;;;;4939546;29;20031;-79
2023/12/01 12:02:46;;;;;;;0.10;0.10;;;8.40;72.60;;;;;;4939022;29;20027;-79
2023/12/01 12:05:12;;;;;;;0.10;0.10;;;8.30;72.40;;;;;;4939000;29;20032;-79
2023/12/01 12:07:38;;;;;;;0.10;0.10;;;8.30;72.80;;;;;;4938798;29;20023;-79
2023/12/01 12:10:06;;;;;;;0.10;0.10;;;8.30;72.80;;;;;;4948098;29;20039;-79
2023/12/01 12:12:32;;;;;;;0.10;0.10;;;8.40;72.20;;;;;;4933964;29;20115;-79
2023/12/01 12:15:11;;;;;;;0.10;0.10;;;8.40;71.90;;;;;;4938806;29;20078;-79
2023/12/01 12:17:39;;;;;;;0.10;0.10;;;8.50;71.90;;;;;;4937105;29;20028;-79
2023/12/01 12:20:06;;;;;;;0.10;0.10;;;8.50;72.10;;;;;;4921760;29;20036;-79
2023/12/01 12:22:32;;;;;;;0.13;0.13;;;8.40;71.20;;;;;;4939166;29;20028;-79
2023/12/01 12:24:57;;;;;;;0.10;0.10;;;8.30;71.10;;;;;;4937615;29;20395;-79
2023/12/01 12:27:23;;;;;;;0.10;0.10;;;8.40;71.30;;;;;;4938234;29;20035;-79
2023/12/01 12:29:49;;;;;;;0.10;0.10;;;8.50;71.40;;;;;;4938814;29;20411;-79
2023/12/01 12:32:15;;;;;;;0.10;0.10;;;8.50;70.90;;;;;;4921317;29;20052;-80
2023/12/01 12:34:41;;;;;;;0.10;0.10;;;8.40;70.70;;;;;;4941461;29;20046;-80
2023/12/01 12:37:11;;;;;;;0.10;0.10;;;8.50;70.00;;;;;;4939579;29;20023;-80
2023/12/01 12:39:36;;;;;;;0.10;0.10;;;8.30;70.10;;;;;;4937421;29;20078;-79
2023/12/01 12:42:02;;;;;;;0.10;0.10;;;8.30;70.90;;;;;;4939491;29;20027;-80
2023/12/01 12:44:31;;;;;;;0.10;0.10;;;8.30;70.60;;;;;;4937649;29;20090;-80
2023/12/01 12:47:00;;;;;;;0.10;0.10;;;8.20;70.40;;;;;;4936988;29;21106;-80
2023/12/01 12:49:26;;;;;;;0.10;0.10;;;8.20;70.50;;;;;;4936700;29;20036;-80
2023/12/01 12:51:51;;;;;;;0.10;0.10;;;8.20;70.30;;;;;;4937028;29;20036;-80
2023/12/01 12:54:17;;;;;;;0.10;0.10;;;8.20;69.90;;;;;;4934426;29;20035;-80
2023/12/01 12:56:43;;;;;;;0.10;0.10;;;8.30;70.40;;;;;;4936433;29;20098;-81
2023/12/01 12:59:08;;;;;;;0.10;0.10;;;8.30;70.10;;;;;;4937144;29;20050;-81
2023/12/01 13:01:34;;;;;;;0.10;0.10;;;8.40;69.40;;;;;;4937667;29;20428;-80
2023/12/01 13:04:00;;;;;;;0.10;0.10;;;8.40;69.30;;;;;;4931756;29;20028;-80
2023/12/01 13:06:25;;;;;;;0.10;0.10;;;8.40;69.30;;;;;;4937011;29;20034;-80
2023/12/01 13:08:52;;;;;;;0.10;0.10;;;8.40;69.60;;;;;;4936983;29;20043;-80
2023/12/01 13:11:18;;;;;;;0.10;0.10;;;8.30;68.50;;;;;;4936604;29;20028;-81
2023/12/01 13:13:44;;;;;;;0.10;0.10;;;8.40;67.70;;;;;;4936630;29;20119;-81
2023/12/01 13:16:10;;;;;;;0.10;0.10;;;8.50;67.60;;;;;;4935904;29;20102;-79
2023/12/01 13:18:40;;;;;;;0.10;0.10;;;8.50;67.40;;;;;;4936259;29;20027;-79
2023/12/01 13:21:07;;;;;;;0.10;0.10;;;8.50;67.20;;;;;;4937092;29;20046;-80
2023/12/01 13:23:33;;;;;;;0.10;0.10;;;8.50;66.60;;;;;;4937388;29;20110;-81
2023/12/01 13:25:58;;;;;;;0.10;0.10;;;8.50;66.30;;;;;;4938922;29;20110;-78
2023/12/01 13:28:25;;;;;;;0.10;0.10;;;8.50;66.80;;;;;;4936245;29;20520;-80
2023/12/01 13:30:52;;;;;;;0.10;0.10;;;8.50;67.10;;;;;;4936405;29;20055;-80
2023/12/01 13:33:17;;;;;;;0.10;0.10;;;8.60;67.10;;;;;;4937154;29;20067;-80
2023/12/01 13:35:43;;;;;;;0.10;0.10;;;8.70;67.00;;;;;;4948022;29;20099;-80
2023/12/01 13:38:09;;;;;;;0.10;0.10;;;8.80;66.90;;;;;;4949130;29;20028;-80
2023/12/01 13:40:36;;;;;;;0.10;0.10;;;8.80;66.60;;;;;;4936650;29;20510;-80
2023/12/01 13:43:02;;;;;;;0.10;0.10;;;8.80;65.60;;;;;;4943797;29;20051;-80
2023/12/01 13:45:28;;;;;;;0.10;0.10;;;8.90;65.90;;;;;;4938286;29;20028;-80
2023/12/01 13:47:54;;;;;;;0.10;0.10;;;8.90;66.40;;;;;;4935555;29;20027;-80
2023/12/01 13:50:20;;;;;;;0.10;0.10;;;9.00;66.30;;;;;;4937030;29;20070;-80
2023/12/01 13:52:46;;;;;;;0.10;0.10;;;9.00;66.10;;;;;;4937039;29;20028;-81
2023/12/01 13:55:12;;;;;;;0.13;0.13;;;9.10;66.20;;;;;;4939925;29;20507;-80
2023/12/01 13:57:39;;;;;;;0.10;0.10;;;9.10;66.10;;;;;;4939588;29;20834;-81
2023/12/01 14:00:12;;;;;;;0.20;0.20;;;9.00;66.00;;;;;;4943074;29;20020;-81
2023/12/01 14:02:48;;;;;;;0.10;0.10;;;8.80;66.00;;;;;;4940564;29;20078;-81
2023/12/01 14:05:17;;;;;;;0.10;0.10;;;8.80;66.20;;;;;;4940236;29;20064;-81
2023/12/01 14:07:44;;;;;;;0.10;0.10;;;8.70;66.10;;;;;;4939848;29;20131;-81
2023/12/01 14:10:13;;;;;;;0.10;0.10;;;8.50;66.50;;;;;;4951488;29;20027;-80
2023/12/01 14:12:43;;;;;;;0.10;0.10;;;8.40;66.30;;;;;;4944435;29;20090;-80
2023/12/01 14:15:10;;;;;;;0.10;0.10;;;8.40;66.00;;;;;;4939928;29;20083;-80
2023/12/01 14:17:35;;;;;;;0.10;0.10;;;8.40;64.90;;;;;;4939516;29;20170;-81
2023/12/01 14:20:05;;;;;;;0.10;0.10;;;8.40;64.00;;;;;;4938460;29;20111;-80
2023/12/01 14:22:30;;;;;;;0.10;0.10;;;8.40;64.70;;;;;;4940541;29;20027;-80
2023/12/01 14:24:56;;;;;;;0.10;0.10;;;8.40;64.30;;;;;;4941002;29;20079;-80
2023/12/01 14:27:22;;;;;;;0.10;0.10;;;8.30;64.50;;;;;;4939295;29;20024;-80
2023/12/01 14:29:48;;;;;;;0.10;0.10;;;8.40;64.10;;;;;;4940625;29;20391;-80
2023/12/01 14:32:14;;;;;;;0.10;0.10;;;8.50;64.00;;;;;;4940621;29;20059;-80
2023/12/01 14:34:40;;;;;;;0.10;0.10;;;8.50;63.50;;;;;;4936480;29;20035;-81
2023/12/01 14:37:05;;;;;;;0.10;0.10;;;8.50;63.40;;;;;;4940368;29;20024;-80
2023/12/01 14:39:31;;;;;;;0.10;0.10;;;8.50;63.40;;;;;;4934303;29;20023;-80
2023/12/01 14:41:57;;;;;;;0.10;0.10;;;8.50;63.50;;;;;;4939094;29;20480;-80
2023/12/01 14:44:22;;;;;;;0.10;0.10;;;8.50;62.90;;;;;;4940511;29;20034;-80
2023/12/01 14:46:48;;;;;;;0.10;0.10;;;8.50;63.00;;;;;;4938786;29;20150;-80
2023/12/01 14:49:13;;;;;;;0.10;0.10;;;8.50;63.00;;;;;;4932872;29;20084;-80
2023/12/01 14:51:39;;;;;;;0.10;0.10;;;8.50;63.90;;;;;;4937834;29;20043;-80
2023/12/01 14:54:05;;;;;;;0.10;0.10;;;8.50;64.20;;;;;;4941874;29;20503;-80
2023/12/01 14:56:32;;;;;;;0.10;0.10;;;8.50;64.40;;;;;;4941597;29;20038;-80
2023/12/01 14:58:59;;;;;;;0.10;0.10;;;8.50;65.10;;;;;;4938341;29;20047;-80
2023/12/01 15:01:25;;;;;;;0.10;0.10;;;8.40;65.00;;;;;;4923835;29;20044;-80
2023/12/01 15:03:51;;;;;;;0.10;0.10;;;8.40;65.20;;;;;;4939297;29;20483;-80
2023/12/01 15:06:17;;;;;;;0.10;0.10;;;8.40;65.70;;;;;;4936896;29;20032;-80
2023/12/01 15:08:42;;;;;;;0.10;0.10;;;8.40;66.00;;;;;;4928125;29;20021;-80
2023/12/01 15:11:08;;;;;;;0.10;0.10;;;8.30;66.20;;;;;;4939872;29;20519;-80
2023/12/01 15:13:34;;;;;;;0.10;0.10;;;8.30;65.60;;;;;;4932830;29;20039;-80
2023/12/01 15:15:59;;;;;;;0.17;0.17;;;8.30;65.90;;;;;;4922518;29;20040;-80
2023/12/01 15:18:25;;;;;;;0.10;0.10;;;8.20;66.20;;;;;;4922308;29;20032;-80
2023/12/01 15:20:53;;;;;;;0.10;0.10;;;8.20;66.60;;;;;;4937600;29;20032;-80
2023/12/01 15:23:19;;;;;;;0.10;0.10;;;8.20;66.60;;;;;;4928197;29;20498;-80
2023/12/01 15:25:45;;;;;;;0.10;0.10;;;8.20;66.80;;;;;;4939229;29;20035;-80
2023/12/01 15:28:10;;;;;;;0.10;0.10;;;8.20;67.00;;;;;;4938668;29;20035;-80
2023/12/01 15:30:36;;;;;;;0.10;0.10;;;8.10;66.90;;;;;;4929043;29;20118;-80
2023/12/01 15:33:01;;;;;;;0.17;0.17;;;8.10;66.50;;;;;;4941040;29;20395;-80
2023/12/01 15:35:27;;;;;;;0.10;0.10;;;8.00;66.50;;;;;;4939937;29;20088;-80
2023/12/01 15:37:53;;;;;;;0.10;0.10;;;8.00;66.20;;;;;;4940916;29;20028;-80
2023/12/01 15:40:18;;;;;;;0.10;0.10;;;7.80;66.50;;;;;;4940538;29;20128;-80
2023/12/01 15:42:44;;;;;;;0.10;0.10;;;7.80;66.60;;;;;;4939673;29;20062;-80
2023/12/01 15:45:10;;;;;;;0.10;0.10;;;7.80;66.80;;;;;;4940815;29;20388;-81
2023/12/01 15:47:35;;;;;;;0.10;0.10;;;7.70;66.70;;;;;;4922930;29;20603;-81
2023/12/01 15:50:02;;;;;;;0.10;0.10;;;7.50;67.20;;;;;;4939922;29;20119;-81
2023/12/01 15:52:28;;;;;;;0.10;0.10;;;7.60;67.10;;;;;;4939458;29;20558;-81
2023/12/01 15:54:54;;;;;;;0.20;0.20;;;7.50;67.10;;;;;;4940313;29;20110;-81
2023/12/01 15:57:19;;;;;;;0.10;0.10;;;7.40;67.50;;;;;;4950181;29;20027;-80
2023/12/01 15:59:45;;;;;;;0.10;0.10;;;7.30;66.90;;;;;;4940649;29;20031;-81
2023/12/01 16:02:11;;;;;;;0.10;0.10;;;7.20;67.00;;;;;;4954597;29;20491;-80
2023/12/01 16:04:37;;;;;;;0.10;0.10;;;7.20;67.70;;;;;;4940242;29;20056;-80
2023/12/01 16:07:03;;;;;;;0.10;0.10;;;7.10;67.70;;;;;;4940180;29;20023;-80
2023/12/01 16:09:29;;;;;;;0.10;0.10;;;7.10;67.50;;;;;;4927723;29;20027;-80
2023/12/01 16:11:54;;;;;;;0.10;0.10;;;7.00;67.50;;;;;;4959484;29;20176;-80
2023/12/01 16:14:20;;;;;;;0.10;0.10;;;6.90;67.50;;;;;;4959120;29;20023;-80
2023/12/01 16:16:45;;;;;;;0.10;0.10;;;6.90;68.50;;;;;;4931433;29;20395;-80
2023/12/01 16:19:11;;;;;;;0.10;0.10;;;6.80;68.50;;;;;;4938819;29;20075;-80
2023/12/01 16:21:43;;;;;;;0.10;0.10;;;6.70;68.20;;;;;;4939622;29;20491;-80
2023/12/01 16:24:10;;;;;;;0.10;0.10;;;6.70;68.90;;;;;;4954810;29;20510;-80
2023/12/01 16:26:35;;;;;;;0.10;0.10;;;6.70;68.50;;;;;;4939119;29;20291;-80
2023/12/01 16:29:01;;;;;;;0.10;0.10;;;6.60;68.60;;;;;;4939829;29;20039;-81
2023/12/01 16:31:27;;;;;;;0.10;0.10;;;6.70;68.80;;;;;;4943355;29;20106;-79
2023/12/01 16:33:52;;;;;;;0.20;0.20;;;6.70;68.60;;;;;;4949203;29;20118;-85
2023/12/01 16:36:18;;;;;;;0.10;0.10;;;6.60;68.90;;;;;;4931905;29;20033;-83
2023/12/01 16:38:44;;;;;;;0.10;0.10;;;6.60;68.80;;;;;;4947579;29;20487;-82
2023/12/01 16:41:09;;;;;;;0.10;0.10;;;6.50;68.90;;;;;;4945257;29;20036;-81
2023/12/01 16:43:35;;;;;;;0.10;0.10;;;6.60;68.90;;;;;;4948146;29;20033;-82
2023/12/01 16:46:00;;;;;;;0.10;0.10;;;6.60;69.10;;;;;;4947993;29;20027;-83
2023/12/01 16:48:26;;;;;;;0.10;0.10;;;6.60;69.00;;;;;;4933285;29;20062;-82
2023/12/01 16:50:53;;;;;;;0.10;0.10;;;6.50;69.00;;;;;;4931367;29;20035;-81
2023/12/01 16:53:18;;;;;;;0.10;0.10;;;6.50;68.90;;;;;;4948169;29;20019;-82
2023/12/01 16:55:44;;;;;;;0.10;0.10;;;6.50;68.80;;;;;;4947872;29;20604;-78
2023/12/01 16:58:12;;;;;;;0.10;0.10;;;6.40;67.90;;;;;;4946475;29;20020;-81
2023/12/01 17:00:38;;;;;;;0.10;0.10;;;6.40;68.30;;;;;;4945014;29;20023;-82
2023/12/01 17:03:03;;;;;;;0.10;0.10;;;6.40;68.30;;;;;;4944790;29;20459;-81
2023/12/01 17:05:29;;;;;;;0.10;0.10;;;6.30;68.00;;;;;;4949392;29;20444;-81
2023/12/01 17:07:54;;;;;;;0.10;0.10;;;6.20;68.40;;;;;;4947794;29;20037;-81
2023/12/01 17:10:20;;;;;;;0.20;0.20;;;6.20;69.00;;;;;;4935705;29;20027;-81
2023/12/01 17:12:45;;;;;;;0.10;0.10;;;6.10;69.10;;;;;;4945155;29;20054;-81
2023/12/01 17:15:11;;;;;;;0.10;0.10;;;6.10;69.20;;;;;;4948094;29;20035;-81
2023/12/01 17:17:37;;;;;;;0.10;0.10;;;6.00;69.20;;;;;;4947683;29;20051;-81
2023/12/01 17:20:05;;;;;;;0.10;0.10;;;6.00;69.70;;;;;;4942868;29;20027;-81
2023/12/01 17:22:34;;;;;;;0.10;0.10;;;6.00;69.70;;;;;;4942397;29;20030;-81
2023/12/01 17:25:00;;;;;;;0.10;0.10;;;6.00;69.70;;;;;;4946112;29;20113;-81
2023/12/01 17:27:26;;;;;;;0.10;0.10;;;6.00;69.30;;;;;;4945547;29;20110;-81
2023/12/01 17:29:52;;;;;;;0.10;0.10;;;5.90;69.50;;;;;;4953376;28;20126;-80
2023/12/01 17:32:18;;;;;;;0.10;0.10;;;5.90;69.60;;;;;;4939409;29;20087;-80
2023/12/01 17:34:45;;;;;;;0.10;0.10;;;6.00;69.60;;;;;;4941799;29;20032;-79
2023/12/01 17:37:10;;;;;;;0.10;0.10;;;5.90;69.50;;;;;;4948306;29;20082;-80
2023/12/01 17:39:36;;;;;;;0.10;0.10;;;5.90;69.50;;;;;;4939819;29;20020;-80
2023/12/01 17:42:02;;;;;;;0.10;0.10;;;5.80;69.70;;;;;;4938954;29;20027;-80
2023/12/01 17:44:27;;;;;;;0.10;0.10;;;5.80;69.90;;;;;;4937916;29;20114;-81
2023/12/01 17:46:53;;;;;;;0.10;0.10;;;5.70;69.90;;;;;;4941048;29;20020;-77
2023/12/01 17:49:19;;;;;;;0.10;0.10;;;5.70;70.10;;;;;;4940984;29;20495;-78
2023/12/01 17:51:44;;;;;;;0.10;0.10;;;5.50;70.80;;;;;;4941038;29;20032;-77
2023/12/01 17:54:12;;;;;;;0.15;0.15;;;5.50;71.50;;;;;;4942183;29;20035;-77
2023/12/01 17:56:38;;;;;;;0.10;0.10;;;5.50;71.30;;;;;;4942744;29;20564;-77
2023/12/01 17:59:04;;;;;;;0.10;0.10;;;5.40;71.50;;;;;;4942603;29;20111;-76
2023/12/01 18:01:33;;;;;;;0.20;0.20;;;5.30;71.60;;;;;;4943897;29;20034;-77
2023/12/01 18:04:00;;;;;;;0.10;0.10;;;5.30;71.70;;;;;;4942350;29;20445;-76
2023/12/01 18:06:26;;;;;;;0.10;0.10;;;5.30;71.10;;;;;;4925361;29;20036;-76
2023/12/01 18:08:52;;;;;;;0.10;0.10;;;5.20;71.30;;;;;;4952360;29;20031;-76
2023/12/01 18:11:17;;;;;;;0.10;0.10;;;5.30;71.40;;;;;;4953453;29;20076;-76
2023/12/01 18:13:43;;;;;;;0.10;0.10;;;5.30;71.50;;;;;;4945258;29;20071;-76
2023/12/01 18:16:09;;;;;;;0.10;0.10;;;5.30;71.50;;;;;;4942149;29;20039;-76
2023/12/01 18:18:35;;;;;;;0.10;0.10;;;5.30;71.00;;;;;;4940773;29;20036;-76
2023/12/01 18:21:02;;;;;;;0.20;0.20;;;5.20;70.90;;;;;;4941910;29;20496;-76
2023/12/01 18:23:28;;;;;;;0.10;0.10;;;5.20;70.90;;;;;;4936077;29;20031;-76
2023/12/01 18:25:54;;;;;;;0.10;0.10;;;5.20;70.80;;;;;;4940706;29;20121;-76